Time;durP1;ratioP1;P1;durP2;ratioP2;P2;SDS_P1;SDS_P2;PMS_P1;PMS_P2;Temp;Humidity;BMP_temperature;BMP_pressure;BME280_temperature;BME280_humidity;BME280_pressure;Samples;Min_cycle;Max_cycle;Signal;HPM_P1;HPM_P2
2023/08/12 00:00:24;;;;;;;3.27;2.00;;;;;;;19.07;100.00;101902.03;2508656;23;20160;-64
2023/08/12 00:01:25;;;;;;;2.33;1.73;;;;;;;19.05;100.00;101901.72;2508340;23;20159;-64
2023/08/12 00:02:25;;;;;;;3.30;2.07;;;;;;;19.02;100.00;101891.38;2508793;23;20168;-64
2023/08/12 00:03:27;;;;;;;3.70;2.30;;;;;;;18.85;100.00;101881.63;2509065;23;20179;-63
2023/08/12 00:04:27;;;;;;;8.13;1.97;;;;;;;18.98;100.00;101899.94;2509106;23;20598;-64
2023/08/12 00:05:28;;;;;;;5.30;2.33;;;;;;;18.97;100.00;101904.00;2508730;23;20739;-63
2023/08/12 00:06:28;;;;;;;3.07;1.93;;;;;;;18.95;100.00;101903.69;2508480;23;20588;-63
2023/08/12 00:07:29;;;;;;;5.20;2.00;;;;;;;18.80;100.00;101876.59;2509057;23;20729;-63
2023/08/12 00:08:30;;;;;;;4.80;1.90;;;;;;;18.96;100.00;101901.66;2509057;23;20669;-63
2023/08/12 00:09:30;;;;;;;3.10;1.90;;;;;;;18.95;100.00;101906.50;2509259;23;20152;-63
2023/08/12 00:10:30;;;;;;;3.70;2.03;;;;;;;18.93;100.00;101908.97;2508514;23;20171;-63
2023/08/12 00:11:31;;;;;;;4.23;1.80;;;;;;;18.90;100.00;101904.28;2509301;23;20189;-63
2023/08/12 00:12:32;;;;;;;3.33;1.80;;;;;;;18.28;100.00;101810.72;2509072;23;20200;-64
2023/08/12 00:13:32;;;;;;;4.23;1.80;;;;;;;18.91;100.00;101905.84;2509233;23;20183;-63
2023/08/12 00:14:32;;;;;;;5.63;2.13;;;;;;;18.93;100.00;101905.41;2508995;23;20602;-64
2023/08/12 00:15:33;;;;;;;14.37;3.03;;;;;;;18.92;100.00;101898.19;2508873;23;20497;-63
2023/08/12 00:16:33;;;;;;;6.77;2.33;;;;;;;18.89;100.00;101908.31;2508184;23;20155;-64
2023/08/12 00:17:36;;;;;;;6.80;2.47;;;;;;;18.76;100.00;101901.22;2508795;23;20159;-63
2023/08/12 00:18:36;;;;;;;4.63;2.10;;;;;;;18.79;100.00;101919.97;2509078;23;20155;-64
2023/08/12 00:19:37;;;;;;;6.60;2.27;;;;;;;18.74;100.00;101893.28;2509010;23;20380;-64
2023/08/12 00:20:37;;;;;;;5.37;2.10;;;;;;;18.73;100.00;101902.16;2508651;23;20507;-64
2023/08/12 00:21:38;;;;;;;6.13;1.77;;;;;;;18.69;100.00;101893.84;2509112;23;20550;-63
2023/08/12 00:22:39;;;;;;;5.10;2.27;;;;;;;18.08;100.00;101813.03;2509033;23;20231;-63
2023/08/12 00:23:40;;;;;;;3.63;1.70;;;;;;;18.54;100.00;101886.41;2509087;23;20158;-63
2023/08/12 00:24:41;;;;;;;4.13;1.80;;;;;;;18.61;100.00;101897.34;2509086;23;20474;-63
2023/08/12 00:25:41;;;;;;;3.57;2.00;;;;;;;17.94;100.00;101791.09;2509231;23;20159;-64
2023/08/12 00:26:41;;;;;;;6.87;2.20;;;;;;;18.55;100.00;101891.56;2507953;23;20187;-64
2023/08/12 00:27:42;;;;;;;4.33;2.40;;;;;;;18.53;100.00;101888.41;2508889;23;20155;-64
2023/08/12 00:28:42;;;;;;;3.80;2.00;;;;;;;18.52;100.00;101888.91;2509126;23;20160;-63
2023/08/12 00:29:43;;;;;;;3.57;1.93;;;;;;;18.53;100.00;101893.25;2509185;23;20182;-64
2023/08/12 00:30:43;;;;;;;6.87;2.10;;;;;;;18.55;100.00;101897.19;2507718;23;20633;-63
2023/08/12 00:31:43;;;;;;;3.47;1.87;;;;;;;18.53;100.00;101887.66;2508249;23;20198;-63
2023/08/12 00:32:44;;;;;;;5.03;2.00;;;;;;;18.53;100.00;101898.88;2508767;23;20183;-63
2023/08/12 00:33:44;;;;;;;3.87;1.80;;;;;;;18.54;100.00;101892.00;2509170;23;20178;-63
2023/08/12 00:34:45;;;;;;;2.73;1.70;;;;;;;18.55;100.00;101896.38;2508820;23;20159;-64
2023/08/12 00:35:45;;;;;;;2.87;1.93;;;;;;;18.55;100.00;101893.56;2508809;23;20215;-63
2023/08/12 00:36:45;;;;;;;3.10;1.80;;;;;;;18.55;100.00;101890.78;2507997;23;20151;-63
2023/08/12 00:37:46;;;;;;;4.10;1.90;;;;;;;18.51;100.00;101898.53;2508790;23;20148;-63
2023/08/12 00:38:46;;;;;;;3.37;1.90;;;;;;;18.51;100.00;101884.50;2508873;23;20179;-64
2023/08/12 00:39:47;;;;;;;3.77;2.10;;;;;;;18.55;100.00;101893.56;2509068;23;20152;-64
2023/08/12 00:40:47;;;;;;;3.10;2.00;;;;;;;18.56;100.00;101886.72;2508521;23;20231;-63
2023/08/12 00:41:48;;;;;;;3.47;2.00;;;;;;;18.57;100.00;101896.72;2509131;23;20207;-63
2023/08/12 00:42:48;;;;;;;3.10;2.07;;;;;;;18.57;100.00;101894.69;2509049;23;20156;-64
2023/08/12 00:43:49;;;;;;;3.47;1.90;;;;;;;18.55;100.00;101891.56;2496380;23;20588;-63
2023/08/12 00:44:49;;;;;;;3.10;2.10;;;;;;;18.57;100.00;101893.91;2496318;23;20657;-63
2023/08/12 00:45:50;;;;;;;3.97;1.97;;;;;;;18.53;100.00;101891.22;2508523;23;20591;-63
2023/08/12 00:46:51;;;;;;;5.80;2.33;;;;;;;18.51;100.00;101898.53;2508579;23;20215;-63
2023/08/12 00:47:51;;;;;;;2.57;1.87;;;;;;;18.44;100.00;101879.16;2508833;23;20761;-63
2023/08/12 00:48:52;;;;;;;5.10;2.80;;;;;;;18.56;100.00;101889.53;2508903;23;20556;-63
2023/08/12 00:49:52;;;;;;;3.77;1.70;;;;;;;18.58;100.00;101895.47;2508907;23;20615;-63
2023/08/12 00:50:53;;;;;;;6.70;1.80;;;;;;;18.58;100.00;101896.25;2508526;23;20175;-63
2023/08/12 00:51:54;;;;;;;3.37;1.87;;;;;;;18.59;100.00;101889.41;2508472;23;20181;-63
2023/08/12 00:52:54;;;;;;;2.80;1.63;;;;;;;18.60;100.00;101893.78;2509066;23;20156;-63
2023/08/12 00:53:58;;;;;;;5.83;1.77;;;;;;;18.58;100.00;101887.81;2508758;23;20474;-63
2023/08/12 00:54:58;;;;;;;5.50;1.63;;;;;;;18.62;100.00;101893.34;2508673;23;20179;-64
2023/08/12 00:55:59;;;;;;;3.87;1.60;;;;;;;18.60;100.00;101890.19;2508264;23;20451;-63
2023/08/12 00:56:59;;;;;;;6.67;1.87;;;;;;;18.60;100.00;101887.38;2508554;23;20159;-63
2023/08/12 00:58:00;;;;;;;7.73;1.87;;;;;;;18.58;100.00;101887.81;2508690;23;20556;-63
2023/08/12 00:59:04;;;;;;;3.83;1.70;;;;;;;18.58;100.00;101887.06;2508911;23;20179;-64
2023/08/12 01:00:05;;;;;;;8.13;2.30;;;;;;;18.43;100.00;101860.75;2508528;23;20495;-63
2023/08/12 01:01:06;;;;;;;12.30;2.20;;;;;;;18.56;100.00;101881.91;2508947;23;20715;-64
2023/08/12 01:02:06;;;;;;;5.37;2.10;;;;;;;18.55;100.00;101887.97;2508914;23;20395;-64
2023/08/12 01:03:07;;;;;;;7.80;2.33;;;;;;;18.52;100.00;101883.28;2508935;23;20544;-63
2023/08/12 01:04:08;;;;;;;4.60;2.23;;;;;;;18.54;100.00;101881.59;2508990;23;20156;-63
2023/08/12 01:05:08;;;;;;;7.87;2.10;;;;;;;18.23;100.00;101844.22;2508958;23;20490;-64
2023/08/12 01:06:09;;;;;;;5.80;2.60;;;;;;;18.48;100.00;101886.19;2508332;23;20559;-63
2023/08/12 01:07:09;;;;;;;5.77;2.23;;;;;;;18.46;100.00;101877.44;2508657;23;20222;-64
2023/08/12 01:08:10;;;;;;;4.77;1.90;;;;;;;18.46;100.00;101885.09;2508649;23;20158;-64
2023/08/12 01:09:10;;;;;;;8.43;2.10;;;;;;;18.33;100.00;101885.16;2509149;23;20231;-63
2023/08/12 01:10:14;;;;;;;6.73;1.93;;;;;;;18.44;100.00;101887.56;2508387;23;20158;-63
2023/08/12 01:11:25;;;;;;;4.10;2.13;;;;;;;18.36;100.00;101884.22;2509003;23;20230;-63
2023/08/12 01:12:31;;;;;;;3.13;1.80;;;;;;;18.37;100.00;101885.03;2508831;23;20365;-63
2023/08/12 01:13:46;;;;;;;5.33;1.90;;;;;;;18.27;100.00;101884.13;2508905;23;20371;-63
2023/08/12 01:15:05;;;;;;;6.37;2.47;;;;;;;18.21;100.00;101876.75;2508676;23;20364;-64
2023/08/12 01:16:08;;;;;;;7.20;2.00;;;;;;;18.26;100.00;101885.38;2508224;23;20423;-64
2023/08/12 01:17:11;;;;;;;3.10;1.70;;;;;;;18.28;100.00;101882.91;2508826;23;20469;-63
2023/08/12 01:18:13;;;;;;;5.53;2.10;;;;;;;18.27;100.00;101884.13;2508492;23;20388;-64
2023/08/12 01:19:34;;;;;;;4.10;2.30;;;;;;;18.28;100.00;101885.72;2508893;23;20472;-63
2023/08/12 01:20:36;;;;;;;5.27;2.13;;;;;;;18.28;100.00;101888.53;2508558;23;20432;-64
2023/08/12 01:21:43;;;;;;;4.13;2.17;;;;;;;18.27;100.00;101887.72;2508807;23;20405;-63
2023/08/12 01:22:44;;;;;;;4.00;2.00;;;;;;;18.30;100.00;101883.22;2508916;23;20368;-63
2023/08/12 01:23:45;;;;;;;6.33;2.10;;;;;;;18.30;100.00;101880.41;2508868;23;20385;-63
2023/08/12 01:24:45;;;;;;;4.43;1.93;;;;;;;18.15;100.00;101856.91;2508695;23;20380;-64
2023/08/12 01:25:46;;;;;;;3.37;1.80;;;;;;;18.29;100.00;101878.84;2508748;23;20216;-63
2023/08/12 01:26:46;;;;;;;3.93;1.80;;;;;;;18.30;100.00;101880.41;2508412;23;20209;-65
2023/08/12 01:27:47;;;;;;;4.80;2.00;;;;;;;18.30;100.00;101877.59;2508792;23;20188;-63
2023/08/12 01:28:47;;;;;;;3.47;1.80;;;;;;;18.28;100.00;101871.69;2508342;23;20161;-63
2023/08/12 01:29:51;;;;;;;7.47;2.00;;;;;;;18.29;100.00;101874.00;2508977;23;20155;-63
2023/08/12 01:31:00;;;;;;;4.83;2.10;;;;;;;17.97;100.00;101839.13;2508599;23;20191;-64
2023/08/12 01:32:39;;;;;;;2.30;1.70;;;;;;;18.26;100.00;101876.94;2509194;23;20368;-63
2023/08/12 01:33:50;;;;;;;5.00;2.07;;;;;;;18.25;100.00;101878.19;2508820;23;20464;-64
2023/08/12 01:34:57;;;;;;;6.27;2.00;;;;;;;18.23;100.00;101877.88;2508720;23;20390;-64
2023/08/12 01:36:11;;;;;;;3.97;2.30;;;;;;;18.21;100.00;101876.75;2508322;23;20429;-63
2023/08/12 01:37:24;;;;;;;5.53;2.33;;;;;;;18.22;100.00;101879.09;2508679;23;20372;-64
2023/08/12 01:38:28;;;;;;;3.67;1.80;;;;;;;18.17;100.00;101872.03;2508370;23;20391;-63
2023/08/12 01:39:31;;;;;;;3.83;1.83;;;;;;;18.18;100.00;101884.06;2508902;23;20381;-64
2023/08/12 01:40:33;;;;;;;3.67;2.20;;;;;;;18.11;100.00;101881.50;2508218;23;20387;-64
2023/08/12 01:41:33;;;;;;;3.70;2.00;;;;;;;18.09;100.00;101878.38;2508880;23;20380;-63
2023/08/12 01:42:34;;;;;;;3.67;1.73;;;;;;;18.06;100.00;101875.69;2496187;23;20406;-63
2023/08/12 01:43:35;;;;;;;5.57;2.10;;;;;;;18.03;100.00;101874.56;2496185;23;20164;-64
2023/08/12 01:44:35;;;;;;;2.77;2.00;;;;;;;18.03;100.00;101877.38;2508938;23;20381;-63
2023/08/12 01:45:36;;;;;;;3.47;1.80;;;;;;;18.03;100.00;101877.38;2508667;23;20570;-64
2023/08/12 01:46:36;;;;;;;3.93;1.70;;;;;;;18.02;100.00;101878.59;2508251;23;20156;-63
2023/08/12 01:47:37;;;;;;;3.63;1.90;;;;;;;18.02;100.00;101876.59;2508638;23;20163;-63
2023/08/12 01:48:37;;;;;;;4.13;1.83;;;;;;;18.02;100.00;101887.00;2508373;23;20164;-63
2023/08/12 01:49:38;;;;;;;4.27;1.97;;;;;;;18.02;100.00;101876.59;2508728;23;20156;-63
2023/08/12 01:50:38;;;;;;;2.73;1.80;;;;;;;18.03;100.00;101880.19;2508402;23;20155;-63
2023/08/12 01:51:38;;;;;;;2.90;1.77;;;;;;;18.02;100.00;101878.59;2508828;23;20235;-63
2023/08/12 01:52:39;;;;;;;4.60;1.77;;;;;;;18.05;100.00;101874.91;2508823;23;20153;-63
2023/08/12 01:53:39;;;;;;;5.33;2.10;;;;;;;18.08;100.00;101881.63;2508518;23;20158;-63
2023/08/12 01:54:40;;;;;;;3.60;1.77;;;;;;;18.08;100.00;101884.44;2508595;23;20490;-63
2023/08/12 01:55:44;;;;;;;3.97;1.80;;;;;;;18.08;100.00;101890.84;2508817;23;20210;-63
2023/08/12 01:56:44;;;;;;;7.10;1.97;;;;;;;17.92;100.00;101855.28;2508242;23;20156;-64
2023/08/12 01:57:45;;;;;;;3.27;1.90;;;;;;;18.08;100.00;101876.81;2508499;23;20388;-63
2023/08/12 01:58:45;;;;;;;5.27;2.17;;;;;;;18.10;100.00;101885.53;2508834;23;20151;-63
2023/08/12 01:59:45;;;;;;;3.77;1.90;;;;;;;18.08;100.00;101885.22;2508343;23;20152;-64
2023/08/12 02:00:46;;;;;;;6.87;1.87;;;;;;;18.09;100.00;101884.75;2508351;23;20211;-64
2023/08/12 02:01:46;;;;;;;4.03;1.83;;;;;;;18.12;100.00;101883.06;2508946;23;20157;-64
2023/08/12 02:02:47;;;;;;;3.77;1.90;;;;;;;18.13;100.00;101883.84;2508620;23;20183;-63
2023/08/12 02:03:47;;;;;;;6.73;2.33;;;;;;;17.93;100.00;101872.91;2508812;23;20152;-64
2023/08/12 02:04:48;;;;;;;5.93;2.00;;;;;;;18.12;100.00;101880.25;2508737;23;20210;-64
2023/08/12 02:05:48;;;;;;;3.33;1.97;;;;;;;18.06;100.00;101878.50;2508603;23;20183;-64
2023/08/12 02:06:49;;;;;;;6.00;1.93;;;;;;;18.10;100.00;101885.53;2508656;23;20510;-63
2023/08/12 02:07:49;;;;;;;6.23;2.10;;;;;;;17.38;100.00;101789.47;2508485;23;20515;-63
2023/08/12 02:08:50;;;;;;;5.83;2.40;;;;;;;18.02;100.00;101887.81;2508661;23;20404;-63
2023/08/12 02:09:51;;;;;;;12.37;3.13;;;;;;;17.83;100.00;101872.03;2508274;23;20180;-63
2023/08/12 02:10:51;;;;;;;10.50;3.00;;;;;;;17.90;100.00;101889.88;2508477;23;20673;-63
2023/08/12 02:11:52;;;;;;;8.07;3.03;;;;;;;17.97;100.00;101898.81;2508868;23;20159;-63
2023/08/12 02:12:52;;;;;;;14.10;3.17;;;;;;;17.96;100.00;101893.66;2508697;23;20212;-63
2023/08/12 02:13:52;;;;;;;6.50;2.60;;;;;;;17.90;100.00;101893.44;2508730;23;20191;-63
2023/08/12 02:14:53;;;;;;;10.23;3.50;;;;;;;17.89;100.00;101889.06;2508544;23;20153;-63
2023/08/12 02:15:53;;;;;;;10.57;3.93;;;;;;;17.88;100.00;101885.47;2508164;23;20194;-63
2023/08/12 02:16:54;;;;;;;9.77;2.80;;;;;;;17.90;100.00;101879.44;2508651;23;20169;-63
2023/08/12 02:17:54;;;;;;;9.80;2.80;;;;;;;17.91;100.00;101886.59;2508513;23;20161;-63
2023/08/12 02:18:55;;;;;;;9.70;2.63;;;;;;;17.98;100.00;101889.94;2508855;23;20202;-63
2023/08/12 02:19:55;;;;;;;8.53;2.80;;;;;;;17.94;100.00;101883.66;2508004;23;20156;-64
2023/08/12 02:20:55;;;;;;;12.10;2.93;;;;;;;17.97;100.00;101887.59;2508794;23;20163;-63
2023/08/12 02:21:56;;;;;;;7.90;2.53;;;;;;;17.81;100.00;101859.69;2508775;23;20619;-64
2023/08/12 02:22:56;;;;;;;7.63;2.50;;;;;;;18.01;100.00;101893.09;2508637;23;20159;-63
2023/08/12 02:23:57;;;;;;;5.13;2.63;;;;;;;17.19;100.00;101768.88;2508784;23;20202;-63
2023/08/12 02:24:58;;;;;;;6.20;2.20;;;;;;;18.03;100.00;101888.59;2508600;23;20163;-63
2023/08/12 02:25:58;;;;;;;7.33;2.33;;;;;;;18.02;100.00;101890.63;2508362;23;20275;-63
2023/08/12 02:26:59;;;;;;;7.60;2.53;;;;;;;18.01;100.00;101893.84;2508695;23;20535;-63
2023/08/12 02:27:59;;;;;;;8.23;2.70;;;;;;;17.99;100.00;101893.53;2508700;23;20279;-63
2023/08/12 02:28:59;;;;;;;7.87;2.70;;;;;;;17.88;100.00;101893.13;2508737;23;20742;-64
2023/08/12 02:30:00;;;;;;;8.00;2.40;;;;;;;17.82;100.00;101892.13;2507984;23;20184;-64
2023/08/12 02:31:00;;;;;;;8.00;2.40;;;;;;;17.77;100.00;101890.66;2508617;23;20159;-63
2023/08/12 02:32:01;;;;;;;6.43;2.30;;;;;;;17.80;100.00;101891.00;2508689;23;20152;-64
2023/08/12 02:33:01;;;;;;;8.53;2.40;;;;;;;17.19;100.00;101785.69;2508758;23;20159;-63
2023/08/12 02:34:03;;;;;;;6.43;2.30;;;;;;;17.86;100.00;101889.97;2508554;23;20211;-63
2023/08/12 02:35:04;;;;;;;5.03;2.30;;;;;;;17.82;100.00;101896.94;2495502;23;20162;-63
2023/08/12 02:36:04;;;;;;;8.30;2.50;;;;;;;17.85;100.00;101901.66;2495457;23;20439;-63
2023/08/12 02:37:05;;;;;;;9.13;2.83;;;;;;;17.20;100.00;101803.25;2508586;23;20163;-63
2023/08/12 02:38:05;;;;;;;5.93;2.60;;;;;;;17.87;100.00;101893.56;2508502;23;20194;-63
2023/08/12 02:39:06;;;;;;;9.97;3.17;;;;;;;17.84;100.00;101898.06;2508674;23;20156;-63
2023/08/12 02:40:07;;;;;;;6.43;2.67;;;;;;;17.80;100.00;101893.81;2508163;23;20165;-64
2023/08/12 02:41:07;;;;;;;13.10;2.50;;;;;;;17.86;100.00;101900.41;2508389;23;20151;-64
2023/08/12 02:42:07;;;;;;;8.23;2.70;;;;;;;17.87;100.00;101899.19;2508635;23;20391;-63
2023/08/12 02:43:10;;;;;;;7.50;2.53;;;;;;;17.69;100.00;101877.34;2508818;23;20600;-63
2023/08/12 02:44:10;;;;;;;6.80;2.40;;;;;;;17.41;100.00;101836.25;2508646;23;20152;-63
2023/08/12 02:45:11;;;;;;;7.40;2.40;;;;;;;17.87;100.00;101890.78;2508925;23;20921;-63
2023/08/12 02:46:12;;;;;;;7.20;2.43;;;;;;;17.86;100.00;101906.03;2507995;23;20160;-63
2023/08/12 02:47:13;;;;;;;5.20;2.50;;;;;;;17.85;100.00;101901.66;2508503;23;20155;-63
2023/08/12 02:48:13;;;;;;;5.60;2.30;;;;;;;17.86;100.00;101908.84;2508577;23;20415;-63
2023/08/12 02:49:14;;;;;;;7.17;2.60;;;;;;;17.87;100.00;101902.78;2508707;23;20699;-63
2023/08/12 02:50:14;;;;;;;4.60;2.30;;;;;;;17.87;100.00;101908.38;2508274;23;20629;-63
2023/08/12 02:51:15;;;;;;;4.97;2.47;;;;;;;17.86;100.00;101909.59;2508332;23;20635;-63
2023/08/12 02:52:15;;;;;;;5.83;2.43;;;;;;;17.54;100.00;101865.03;2508610;23;20151;-64
2023/08/12 02:53:16;;;;;;;7.63;2.50;;;;;;;17.17;100.00;101798.56;2508675;23;20686;-64
2023/08/12 02:54:16;;;;;;;6.00;2.30;;;;;;;17.85;100.00;101902.44;2508284;23;20195;-63
2023/08/12 02:55:16;;;;;;;7.53;2.60;;;;;;;17.86;100.00;101906.78;2508783;23;20155;-63
2023/08/12 02:56:17;;;;;;;4.73;2.30;;;;;;;17.87;100.00;101904.78;2508635;23;20257;-63
2023/08/12 02:57:17;;;;;;;3.67;2.27;;;;;;;17.88;100.00;101914.75;2509186;23;20150;-63
2023/08/12 02:58:18;;;;;;;6.33;2.73;;;;;;;17.83;100.00;101914.09;2509396;23;20186;-63
2023/08/12 02:59:18;;;;;;;5.67;2.40;;;;;;;17.82;100.00;101913.78;2509404;23;20151;-63
2023/08/12 03:00:19;;;;;;;6.67;2.50;;;;;;;17.82;100.00;101908.97;2508995;23;20147;-64
2023/08/12 03:01:21;;;;;;;7.57;2.87;;;;;;;17.05;100.00;101796.56;2508895;23;20181;-63
2023/08/12 03:02:21;;;;;;;7.07;2.67;;;;;;;17.76;100.00;101910.72;2509486;23;20497;-64
2023/08/12 03:03:21;;;;;;;6.17;2.40;;;;;;;17.72;100.00;101910.09;2509447;23;20394;-63
2023/08/12 03:04:22;;;;;;;6.43;2.40;;;;;;;17.13;100.00;101854.72;2509555;23;20256;-64
2023/08/12 03:05:23;;;;;;;4.93;2.50;;;;;;;17.66;100.00;101911.88;2509485;23;20226;-64
2023/08/12 03:06:23;;;;;;;11.00;2.67;;;;;;;17.63;100.00;101906.38;2508766;23;20229;-63
2023/08/12 03:07:23;;;;;;;5.90;2.57;;;;;;;17.63;100.00;101912.00;2509319;23;20352;-63
2023/08/12 03:08:24;;;;;;;5.33;2.23;;;;;;;17.48;100.00;101894.84;2509335;23;20629;-63
2023/08/12 03:09:25;;;;;;;6.37;2.47;;;;;;;17.56;100.00;101904.59;2509556;23;20184;-63
2023/08/12 03:10:25;;;;;;;8.97;2.50;;;;;;;17.58;100.00;101910.53;2508723;23;20503;-63
2023/08/12 03:11:25;;;;;;;3.97;2.37;;;;;;;17.53;100.00;101913.91;2509113;23;20157;-63
2023/08/12 03:12:26;;;;;;;8.23;2.80;;;;;;;17.47;100.00;101912.91;2509385;23;20158;-63
2023/08/12 03:13:27;;;;;;;5.20;2.47;;;;;;;17.30;100.00;101892.59;2509305;23;20197;-63
2023/08/12 03:14:29;;;;;;;5.43;2.60;;;;;;;17.44;100.00;101925.00;2509293;23;20153;-63
2023/08/12 03:15:30;;;;;;;6.13;2.43;;;;;;;17.44;100.00;101918.63;2509350;23;20423;-63
2023/08/12 03:16:30;;;;;;;4.87;2.50;;;;;;;17.44;100.00;101924.25;2508725;23;20996;-63
2023/08/12 03:17:31;;;;;;;6.33;2.40;;;;;;;17.38;100.00;101918.38;2509077;23;20552;-63
2023/08/12 03:18:31;;;;;;;5.27;2.70;;;;;;;17.36;100.00;101912.44;2509385;23;20749;-64
2023/08/12 03:19:31;;;;;;;7.53;2.50;;;;;;;17.44;100.00;101924.25;2509447;23;20162;-63
2023/08/12 03:20:32;;;;;;;8.47;2.70;;;;;;;17.46;100.00;101916.16;2508876;23;20573;-64
2023/08/12 03:21:34;;;;;;;7.17;2.70;;;;;;;17.47;100.00;101917.72;2509239;23;20507;-63
2023/08/12 03:22:37;;;;;;;7.63;2.73;;;;;;;17.47;100.00;101924.13;2509034;23;20243;-63
2023/08/12 03:23:37;;;;;;;6.33;2.70;;;;;;;16.52;100.00;101780.59;2509297;23;20388;-64
2023/08/12 03:24:38;;;;;;;5.20;2.30;;;;;;;17.48;100.00;101916.47;2509216;23;20391;-63
2023/08/12 03:25:38;;;;;;;7.10;2.87;;;;;;;17.41;100.00;101920.31;2509445;23;20152;-64
2023/08/12 03:26:39;;;;;;;7.17;2.70;;;;;;;17.45;100.00;101929.38;2508667;23;20227;-63
2023/08/12 03:27:39;;;;;;;5.83;2.60;;;;;;;17.47;100.00;101935.34;2509091;23;20167;-63
2023/08/12 03:28:39;;;;;;;6.77;2.80;;;;;;;17.40;100.00;101932.72;2509428;23;20159;-63
2023/08/12 03:29:40;;;;;;;5.83;2.83;;;;;;;17.39;100.00;101928.38;2509368;23;20179;-63
2023/08/12 03:30:40;;;;;;;8.93;3.03;;;;;;;17.40;100.00;101938.34;2508865;23;20162;-63
2023/08/12 03:31:41;;;;;;;8.53;2.80;;;;;;;17.42;100.00;101932.28;2509402;23;20211;-64
2023/08/12 03:32:41;;;;;;;7.33;3.00;;;;;;;17.45;100.00;101939.81;2508826;23;20240;-63
2023/08/12 03:33:42;;;;;;;8.00;2.90;;;;;;;17.39;100.00;101928.38;2496598;23;20163;-63
2023/08/12 03:34:42;;;;;;;7.03;2.70;;;;;;;17.35;100.00;101930.47;2496541;23;20184;-63
2023/08/12 03:35:45;;;;;;;9.53;3.00;;;;;;;17.36;100.00;101930.00;2509238;23;20606;-63
2023/08/12 03:36:48;;;;;;;11.10;3.30;;;;;;;16.88;100.00;101853.88;2508814;23;20155;-63
2023/08/12 03:37:48;;;;;;;8.37;3.03;;;;;;;17.41;100.00;101927.94;2509003;23;20862;-63
2023/08/12 03:38:49;;;;;;;6.13;2.87;;;;;;;17.40;100.00;101929.94;2509340;23;20848;-63
2023/08/12 03:39:49;;;;;;;7.03;2.90;;;;;;;17.35;100.00;101931.25;2509335;23;20619;-63
2023/08/12 03:40:50;;;;;;;9.30;2.70;;;;;;;17.39;100.00;101931.16;2508721;23;20182;-63
2023/08/12 03:41:50;;;;;;;7.47;2.63;;;;;;;17.37;100.00;101925.22;2509351;23;20154;-63
2023/08/12 03:42:51;;;;;;;9.50;2.70;;;;;;;17.37;100.00;101934.38;2508914;23;20154;-63
2023/08/12 03:44:10;;;;;;;6.23;2.40;;;;;;;17.39;100.00;101925.56;2509195;23;20647;-62
2023/08/12 03:45:10;;;;;;;8.20;2.50;;;;;;;17.41;100.00;101928.72;2509399;23;20168;-63
2023/08/12 03:46:11;;;;;;;12.40;3.17;;;;;;;17.43;100.00;101929.03;2508488;23;20587;-63
2023/08/12 03:47:11;;;;;;;6.70;2.73;;;;;;;17.46;100.00;101935.78;2509163;23;20656;-63
2023/08/12 03:48:11;;;;;;;9.13;2.60;;;;;;;17.45;100.00;101934.22;2509098;23;20700;-64
2023/08/12 03:49:12;;;;;;;5.63;2.40;;;;;;;17.07;100.00;101872.50;2509580;23;20588;-63
2023/08/12 03:50:12;;;;;;;4.50;2.77;;;;;;;17.45;100.00;101943.38;2496141;23;20167;-63
2023/08/12 03:51:13;;;;;;;5.97;2.57;;;;;;;17.49;100.00;101944.06;2496619;23;20176;-63
2023/08/12 03:52:13;;;;;;;5.80;2.43;;;;;;;17.50;100.00;101942.06;2509215;23;20171;-64
2023/08/12 03:53:13;;;;;;;5.80;2.60;;;;;;;17.47;100.00;101940.13;2508760;23;20161;-63
2023/08/12 03:54:14;;;;;;;6.97;2.60;;;;;;;17.48;100.00;101936.09;2508994;23;20227;-63
2023/08/12 03:55:14;;;;;;;6.53;2.70;;;;;;;16.49;100.00;101787.88;2509089;23;20154;-63
2023/08/12 03:56:16;;;;;;;7.90;2.60;;;;;;;17.50;100.00;101945.63;2508437;23;20187;-64
2023/08/12 03:57:16;;;;;;;7.17;2.87;;;;;;;17.52;100.00;101939.59;2508938;23;20148;-63
2023/08/12 03:58:17;;;;;;;15.23;3.93;;;;;;;17.35;100.00;101922.06;2509095;23;20459;-63
2023/08/12 03:59:17;;;;;;;18.83;4.40;;;;;;;17.53;100.00;101944.75;2509208;23;20151;-63
2023/08/12 04:00:18;;;;;;;21.33;4.93;;;;;;;17.53;100.00;101942.72;2508671;23;20573;-63
2023/08/12 04:01:18;;;;;;;17.50;4.30;;;;;;;17.52;100.00;101941.16;2509269;23;20495;-63
2023/08/12 04:02:18;;;;;;;15.17;4.53;;;;;;;17.44;100.00;101936.22;2509088;23;20154;-64
2023/08/12 04:03:19;;;;;;;16.07;4.40;;;;;;;16.55;100.00;101797.28;2508626;23;20161;-64
2023/08/12 04:04:19;;;;;;;16.03;4.37;;;;;;;17.53;100.00;101947.53;2509107;23;20212;-63
2023/08/12 04:05:20;;;;;;;19.43;4.10;;;;;;;17.55;100.00;101955.50;2509091;23;20154;-63
2023/08/12 04:06:20;;;;;;;18.53;4.67;;;;;;;17.56;100.00;101945.88;2508553;23;20207;-63
2023/08/12 04:07:20;;;;;;;12.40;3.90;;;;;;;17.06;100.00;101873.75;2508511;23;20210;-63
2023/08/12 04:08:23;;;;;;;18.40;4.50;;;;;;;17.62;100.00;101946.88;2509111;23;20151;-63
2023/08/12 04:09:23;;;;;;;17.10;4.23;;;;;;;16.98;100.00;101849.97;2509233;23;20256;-64
2023/08/12 04:10:24;;;;;;;17.77;4.97;;;;;;;17.65;100.00;101960.00;2508751;23;20466;-63
2023/08/12 04:11:25;;;;;;;18.23;4.67;;;;;;;17.63;100.00;101955.59;2509157;23;20225;-63
2023/08/12 04:12:25;;;;;;;25.97;4.97;;;;;;;17.65;100.00;101952.34;2508990;23;20214;-63
2023/08/12 04:13:26;;;;;;;17.30;4.87;;;;;;;17.68;100.00;101957.09;2508664;23;20487;-63
2023/08/12 04:14:26;;;;;;;15.90;4.50;;;;;;;17.68;100.00;101952.25;2508994;23;20669;-64
2023/08/12 04:15:27;;;;;;;10.30;4.23;;;;;;;17.71;100.00;101949.78;2509234;23;20148;-63
2023/08/12 04:16:27;;;;;;;13.33;4.30;;;;;;;17.73;100.00;101942.50;2508428;23;20468;-63
2023/08/12 04:17:28;;;;;;;11.67;3.20;;;;;;;17.68;100.00;101940.25;2508786;23;20159;-63
2023/08/12 04:18:28;;;;;;;13.53;3.63;;;;;;;17.75;100.00;101951.22;2509009;23;20229;-64
2023/08/12 04:19:28;;;;;;;10.93;3.63;;;;;;;17.38;100.00;101887.53;2509019;23;20159;-64
2023/08/12 04:20:29;;;;;;;14.93;4.10;;;;;;;17.74;100.00;101946.88;2508765;23;20155;-63
2023/08/12 04:21:29;;;;;;;9.93;4.17;;;;;;;17.67;100.00;101933.84;2509180;23;20179;-64
2023/08/12 04:22:30;;;;;;;16.93;3.77;;;;;;;17.74;100.00;101955.28;2509202;23;20211;-64
2023/08/12 04:23:30;;;;;;;9.07;3.70;;;;;;;17.75;100.00;101958.88;2509101;23;20246;-64
2023/08/12 04:24:31;;;;;;;9.33;4.10;;;;;;;17.25;100.00;101879.13;2508753;23;20160;-64
2023/08/12 04:25:31;;;;;;;12.60;3.90;;;;;;;17.78;100.00;101953.16;2509083;23;20450;-64
2023/08/12 04:26:32;;;;;;;13.07;3.67;;;;;;;17.79;100.00;101960.31;2508445;23;20180;-63
2023/08/12 04:27:32;;;;;;;8.53;3.40;;;;;;;17.82;100.00;101953.81;2508985;23;20156;-63
2023/08/12 04:28:32;;;;;;;9.93;3.20;;;;;;;17.83;100.00;101956.16;2508952;23;20241;-63
2023/08/12 04:29:33;;;;;;;5.50;2.80;;;;;;;17.85;100.00;101958.50;2509254;23;20162;-63
2023/08/12 04:30:33;;;;;;;11.00;3.30;;;;;;;17.90;100.00;101960.00;2508623;23;20165;-64
2023/08/12 04:31:34;;;;;;;13.83;3.07;;;;;;;17.36;100.00;101871.16;2508972;23;20160;-64
2023/08/12 04:32:34;;;;;;;8.23;2.90;;;;;;;17.92;100.00;101956.25;2509161;23;20186;-64
2023/08/12 04:33:34;;;;;;;6.53;2.70;;;;;;;17.96;100.00;101952.56;2508888;23;20632;-63
2023/08/12 04:34:35;;;;;;;7.50;2.63;;;;;;;17.99;100.00;101960.88;2508433;23;20521;-63
2023/08/12 04:35:35;;;;;;;7.40;3.10;;;;;;;17.88;100.00;101941.56;2509021;23;20186;-64
2023/08/12 04:36:35;;;;;;;7.87;2.80;;;;;;;18.04;100.00;101957.50;2508406;23;20187;-63
2023/08/12 04:37:36;;;;;;;5.50;2.47;;;;;;;18.06;100.00;101959.84;2508808;23;20189;-63
2023/08/12 04:38:36;;;;;;;9.33;2.87;;;;;;;17.96;100.00;101941.34;2508979;23;20177;-63
2023/08/12 04:39:37;;;;;;;13.03;3.03;;;;;;;18.13;100.00;101957.59;2509105;23;20155;-63
2023/08/12 04:40:41;;;;;;;9.37;2.70;;;;;;;18.17;100.00;101961.03;2508581;23;20224;-63
2023/08/12 04:41:41;;;;;;;6.10;2.67;;;;;;;18.22;100.00;101959.69;2509225;23;20156;-63